createdAt,value
2022-09-15T00:00:14.158Z,2.90
2022-09-15T00:05:38.031Z,2.80
2022-09-15T00:11:07.292Z,3.47
2022-09-15T00:16:33.375Z,3.25
2022-09-15T00:21:57.002Z,3.78
2022-09-15T00:27:20.573Z,3.28
2022-09-15T00:32:45.491Z,4.15
2022-09-15T00:38:10.739Z,4.20
2022-09-15T00:43:47.511Z,4.65
2022-09-15T00:49:15.669Z,4.28
2022-09-15T00:54:42.890Z,5.07
2022-09-15T01:00:09.512Z,4.78
2022-09-15T01:05:40.549Z,5.13
2022-09-15T01:11:04.457Z,5.43
2022-09-15T01:16:34.218Z,5.43
2022-09-15T01:22:10.291Z,5.20
2022-09-15T01:27:58.041Z,4.80
2022-09-15T01:33:36.436Z,4.40
2022-09-15T01:39:05.830Z,4.20
2022-09-15T01:44:33.044Z,3.88
2022-09-15T01:50:04.080Z,3.53
2022-09-15T01:55:32.790Z,3.67
2022-09-15T02:01:00.347Z,3.90
2022-09-15T02:06:36.656Z,4.47
2022-09-15T02:12:07.836Z,4.45
2022-09-15T02:17:35.415Z,3.75
2022-09-15T02:23:08.456Z,3.38
2022-09-15T02:28:38.635Z,2.70
2022-09-15T02:34:06.934Z,2.83
2022-09-15T02:39:35.260Z,2.20
2022-09-15T02:44:59.706Z,2.85
2022-09-15T02:50:23.277Z,2.22
2022-09-15T02:55:48.443Z,2.08
2022-09-15T03:01:16.076Z,2.10
2022-09-15T03:06:39.820Z,2.92
2022-09-15T03:12:05.127Z,2.03
2022-09-15T03:17:28.690Z,1.75
2022-09-15T03:22:52.341Z,2.05
2022-09-15T03:28:17.298Z,2.42
2022-09-15T03:33:41.207Z,2.50
2022-09-15T03:39:05.091Z,2.55
2022-09-15T03:44:30.155Z,2.45
2022-09-15T03:49:53.691Z,2.58
2022-09-15T03:55:17.460Z,2.60
2022-09-15T04:00:42.537Z,2.65
2022-09-15T04:06:06.432Z,2.30
2022-09-15T04:11:30.116Z,2.22
2022-09-15T04:16:55.090Z,2.00
2022-09-15T04:22:18.701Z,2.35
2022-09-15T04:27:42.495Z,2.17
2022-09-15T04:33:08.307Z,2.20
2022-09-15T04:38:32.351Z,2.08
2022-09-15T04:43:56.644Z,1.80
2022-09-15T04:49:21.646Z,2.25
2022-09-15T04:54:45.410Z,2.50
2022-09-15T05:00:10.599Z,2.95
2022-09-15T05:05:36.102Z,2.70
2022-09-15T05:11:00.919Z,3.33
2022-09-15T05:16:26.620Z,3.60
2022-09-15T05:21:51.585Z,2.88
2022-09-15T05:27:15.181Z,2.90
2022-09-15T05:32:38.748Z,3.13
2022-09-15T05:38:03.745Z,3.30
2022-09-15T05:43:27.347Z,3.38
2022-09-15T05:48:51.249Z,2.97
2022-09-15T05:54:16.233Z,3.20
2022-09-15T05:59:41.994Z,2.63
2022-09-15T06:05:06.147Z,2.95
2022-09-15T06:10:31.084Z,2.67
2022-09-15T06:15:54.711Z,2.67
2022-09-15T06:21:20.355Z,2.40
2022-09-15T06:26:45.287Z,2.60
2022-09-15T06:32:08.968Z,2.88
2022-09-15T06:37:32.635Z,2.38
2022-09-15T06:42:58.280Z,2.28
2022-09-15T06:48:24.910Z,2.75
2022-09-15T06:53:49.486Z,2.15
2022-09-15T06:59:15.595Z,2.28
2022-09-15T07:04:39.534Z,2.25
2022-09-15T07:10:03.152Z,2.10
2022-09-15T07:15:28.117Z,2.40
2022-09-15T07:20:52.641Z,2.03
2022-09-15T07:26:18.096Z,2.38
2022-09-15T07:31:43.131Z,2.45
2022-09-15T07:37:06.729Z,1.80
2022-09-15T07:42:34.771Z,1.90
2022-09-15T07:48:00.476Z,1.40
2022-09-15T07:53:24.108Z,2.03
2022-09-15T07:58:47.976Z,1.73
2022-09-15T08:04:12.946Z,1.77
2022-09-15T08:09:37.781Z,1.52
2022-09-15T08:15:01.413Z,1.90
2022-09-15T08:20:26.411Z,1.60
2022-09-15T08:25:51.638Z,1.70
2022-09-15T08:31:16.104Z,1.23
2022-09-15T08:36:41.191Z,1.13
2022-09-15T08:42:05.784Z,0.90
2022-09-15T08:47:33.404Z,1.08
2022-09-15T08:53:03.784Z,1.08
2022-09-15T08:58:30.714Z,1.05
2022-09-15T09:04:24.620Z,1.00
2022-09-15T09:09:57.157Z,0.93
2022-09-15T09:15:32.454Z,0.82
2022-09-15T09:21:05.476Z,0.93
2022-09-15T09:26:32.559Z,1.20
2022-09-15T09:31:58.110Z,0.95
2022-09-15T09:37:21.845Z,0.90
2022-09-15T09:42:47.255Z,0.95
2022-09-15T09:48:16.508Z,0.90
2022-09-15T09:53:40.094Z,0.80
2022-09-15T09:59:05.328Z,0.70
2022-09-15T10:04:29.526Z,0.80
2022-09-15T10:09:58.347Z,0.77
2022-09-15T10:20:50.652Z,0.80
2022-09-15T10:26:33.003Z,0.70
2022-09-15T10:32:25.360Z,1.02
2022-09-15T10:38:04.983Z,0.98
2022-09-15T10:43:40.470Z,1.17
2022-09-15T10:49:19.836Z,1.10
2022-09-15T10:54:56.459Z,0.95
2022-09-15T11:00:22.710Z,1.00
2022-09-15T11:05:55.532Z,0.95
2022-09-15T11:11:28.382Z,1.52
2022-09-15T11:17:08.254Z,1.88
2022-09-15T11:22:36.372Z,2.28
2022-09-15T11:28:05.569Z,1.77
2022-09-15T11:33:33.548Z,1.80
2022-09-15T11:39:06.696Z,1.60
2022-09-15T11:44:32.505Z,2.13
2022-09-15T11:49:59.073Z,2.05
2022-09-15T11:55:31.422Z,1.70
2022-09-15T12:01:00.204Z,1.58
2022-09-15T12:06:31.142Z,1.80
2022-09-15T12:12:02.033Z,2.28
2022-09-15T12:17:32.387Z,1.90
2022-09-15T12:23:01.266Z,1.83
2022-09-15T12:28:39.650Z,3.10
2022-09-15T12:34:06.487Z,1.50
2022-09-15T12:39:32.879Z,1.77
2022-09-15T12:45:01.771Z,1.90
2022-09-15T12:50:30.371Z,1.85
2022-09-15T12:55:56.426Z,4.65
2022-09-15T13:01:48.161Z,1.30
2022-09-15T13:07:33.945Z,2.08
2022-09-15T13:13:10.713Z,1.88
2022-09-15T13:18:36.086Z,2.78
2022-09-15T13:24:02.014Z,3.03
2022-09-15T13:29:27.961Z,2.38
2022-09-15T13:35:28.920Z,2.08
2022-09-15T13:41:23.417Z,3.53
2022-09-15T13:46:57.871Z,3.20
2022-09-15T13:52:47.472Z,3.50
2022-09-15T14:04:02.416Z,2.97
2022-09-15T14:09:28.990Z,3.00
2022-09-15T14:14:58.675Z,2.95
2022-09-15T14:20:28.996Z,3.40
2022-09-15T14:25:52.971Z,4.38
2022-09-15T14:31:18.433Z,4.32
2022-09-15T14:36:42.219Z,4.03
2022-09-15T14:42:21.479Z,4.22
2022-09-15T14:47:46.891Z,4.68
2022-09-15T14:53:14.562Z,4.57
2022-09-15T14:58:43.057Z,6.10
2022-09-15T15:04:16.683Z,4.53
2022-09-15T15:09:44.751Z,4.95
2022-09-15T15:15:11.588Z,5.60
2022-09-15T15:20:36.536Z,6.97
2022-09-15T15:26:33.997Z,7.25
2022-09-15T15:32:05.327Z,7.00
2022-09-15T15:37:32.331Z,7.00
2022-09-15T15:42:59.931Z,6.95
2022-09-15T15:48:24.156Z,5.75
2022-09-15T15:53:49.147Z,4.25
2022-09-15T15:59:14.579Z,4.57
2022-09-15T16:04:38.240Z,3.92
2022-09-15T16:10:03.640Z,3.75
2022-09-15T16:15:28.047Z,3.20
2022-09-15T16:20:51.669Z,3.42
2022-09-15T16:26:19.639Z,3.55
2022-09-15T16:31:43.648Z,3.53
2022-09-15T16:37:08.725Z,3.35
2022-09-15T16:42:33.766Z,3.78
2022-09-15T16:47:57.398Z,3.63
2022-09-15T16:53:23.006Z,3.22
2022-09-15T16:58:47.999Z,3.10
2022-09-15T17:04:16.811Z,3.25
2022-09-15T17:09:40.574Z,3.70
2022-09-15T17:15:18.881Z,3.90
2022-09-15T17:20:43.146Z,3.85
2022-09-15T17:26:11.320Z,3.83
2022-09-15T17:31:36.368Z,4.72
2022-09-15T17:37:00.003Z,8.63
2022-09-15T17:42:23.710Z,10.23
2022-09-15T17:47:49.276Z,9.90
2022-09-15T17:53:14.347Z,9.57
2022-09-15T17:58:38.030Z,9.13
2022-09-15T18:04:03.399Z,8.07
2022-09-15T18:09:27.094Z,7.75
2022-09-15T18:14:51.064Z,9.48
2022-09-15T18:20:18.478Z,9.80
2022-09-15T18:25:42.692Z,8.48
2022-09-15T18:31:06.731Z,7.28
2022-09-15T18:36:32.030Z,8.25
2022-09-15T18:41:55.637Z,7.30
2022-09-15T18:47:19.280Z,8.05
2022-09-15T18:52:44.504Z,8.15
2022-09-15T18:58:08.153Z,9.10
2022-09-15T19:03:34.189Z,7.78
2022-09-15T19:08:59.423Z,6.82
2022-09-15T19:14:23.071Z,5.55
2022-09-15T19:19:47.269Z,6.10
2022-09-15T19:25:13.495Z,7.50
2022-09-15T19:30:37.191Z,6.15
2022-09-15T19:36:24.216Z,5.28
2022-09-15T19:41:48.975Z,5.03
2022-09-15T19:47:12.606Z,4.40
2022-09-15T19:52:36.342Z,4.93
2022-09-15T19:58:01.986Z,4.90
2022-09-15T20:03:28.365Z,5.30
2022-09-15T20:08:53.836Z,5.97
2022-09-15T20:14:18.971Z,5.38
2022-09-15T20:19:42.694Z,4.90
2022-09-15T20:25:06.974Z,5.55
2022-09-15T20:30:35.423Z,6.88
2022-09-15T20:36:03.855Z,6.10
2022-09-15T20:41:29.373Z,6.50
2022-09-15T20:46:54.999Z,7.03
2022-09-15T20:52:18.775Z,7.30
2022-09-15T20:57:42.378Z,6.70
2022-09-15T21:03:07.375Z,6.75
2022-09-15T21:08:34.807Z,6.72
2022-09-15T21:13:58.762Z,7.70
2022-09-15T21:19:23.845Z,7.18
2022-09-15T21:24:47.618Z,7.97
2022-09-15T21:30:16.957Z,8.93
2022-09-15T21:35:52.144Z,9.02
2022-09-15T21:41:17.789Z,9.07
2022-09-15T21:46:41.418Z,9.77
2022-09-15T21:52:06.461Z,9.65
2022-09-15T21:57:30.375Z,10.50
2022-09-15T22:02:54.048Z,10.02
2022-09-15T22:08:19.417Z,9.73
2022-09-15T22:13:44.636Z,9.98
2022-09-15T22:19:09.695Z,11.00
2022-09-15T22:24:34.699Z,10.38
2022-09-15T22:29:58.379Z,12.02
2022-09-15T22:35:21.973Z,10.82
2022-09-15T22:40:47.101Z,10.43
2022-09-15T22:46:12.094Z,11.13
2022-09-15T22:51:35.761Z,11.13
2022-09-15T22:57:00.711Z,12.52
2022-09-15T23:02:24.373Z,12.18
2022-09-15T23:07:48.035Z,13.07
2022-09-15T23:13:13.094Z,13.70
2022-09-15T23:18:37.345Z,14.63
2022-09-15T23:24:01.537Z,13.93
2022-09-15T23:29:26.787Z,15.70
2022-09-15T23:34:50.420Z,14.00
2022-09-15T23:40:14.100Z,12.95
2022-09-15T23:45:39.896Z,10.95
2022-09-15T23:51:04.129Z,7.88
2022-09-15T23:56:27.902Z,6.65
